Time;durP1;ratioP1;P1;durP2;ratioP2;P2;SDS_P1;SDS_P2;PMS_P1;PMS_P2;Temp;Humidity;BMP_temperature;BMP_pressure;BME280_temperature;BME280_humidity;BME280_pressure;Samples;Min_cycle;Max_cycle;Signal;HPM_P1;HPM_P2
2022/03/16 00:02:24;;;;;;;28.92;17.15;;;7.00;99.90;;;;;;5072750;28;20060;-76
2022/03/16 00:04:54;;;;;;;21.50;15.70;;;7.00;99.90;;;;;;5073060;28;20040;-76
2022/03/16 00:07:21;;;;;;;21.45;15.77;;;7.00;99.90;;;;;;5071759;28;20048;-76
2022/03/16 00:09:46;;;;;;;23.13;16.73;;;7.00;99.90;;;;;;5073034;28;20098;-76
2022/03/16 00:12:13;;;;;;;22.88;16.88;;;7.00;99.90;;;;;;5072518;28;20068;-76
2022/03/16 00:14:39;;;;;;;24.73;15.77;;;6.90;99.90;;;;;;5072382;28;20028;-76
2022/03/16 00:17:05;;;;;;;23.50;15.43;;;6.90;99.90;;;;;;5072827;28;20021;-76
2022/03/16 00:19:32;;;;;;;26.38;16.20;;;6.90;99.90;;;;;;5072560;28;20055;-76
2022/03/16 00:21:59;;;;;;;25.13;15.68;;;6.80;99.90;;;;;;5072048;28;20028;-76
2022/03/16 00:24:25;;;;;;;25.30;16.58;;;6.80;99.90;;;;;;5072779;28;20435;-76
2022/03/16 00:26:50;;;;;;;21.40;15.25;;;6.80;99.90;;;;;;5072919;28;20021;-76
2022/03/16 00:29:16;;;;;;;25.95;15.98;;;6.80;99.90;;;;;;5071776;28;20033;-76
2022/03/16 00:31:41;;;;;;;23.17;16.27;;;6.80;99.90;;;;;;5072517;28;20036;-76
2022/03/16 00:34:07;;;;;;;23.48;16.08;;;6.80;99.90;;;;;;5072246;28;20016;-76
2022/03/16 00:36:33;;;;;;;24.73;16.98;;;6.80;99.90;;;;;;5072184;28;20392;-76
2022/03/16 00:38:58;;;;;;;26.00;17.52;;;6.80;99.90;;;;;;5072743;28;20460;-76
2022/03/16 00:41:24;;;;;;;26.50;16.95;;;6.80;99.90;;;;;;5072189;28;20155;-76
2022/03/16 00:43:49;;;;;;;28.60;17.75;;;6.80;99.90;;;;;;5071716;28;20465;-76
2022/03/16 00:46:15;;;;;;;25.10;16.92;;;6.80;99.90;;;;;;5072108;28;20025;-76
2022/03/16 00:48:41;;;;;;;31.13;19.13;;;6.80;99.90;;;;;;5071599;28;20024;-76
2022/03/16 00:51:08;;;;;;;27.65;18.70;;;6.80;99.90;;;;;;5072089;28;20526;-75
2022/03/16 00:53:34;;;;;;;34.67;18.98;;;6.80;99.90;;;;;;5072193;28;20020;-76
2022/03/16 00:56:03;;;;;;;26.70;18.55;;;6.80;99.90;;;;;;5071362;28;20570;-76
2022/03/16 00:58:29;;;;;;;29.17;20.20;;;6.70;99.90;;;;;;5071920;28;20021;-76
2022/03/16 01:00:55;;;;;;;32.85;19.25;;;6.70;99.90;;;;;;5072291;28;20021;-76
2022/03/16 01:03:21;;;;;;;31.50;19.80;;;6.70;99.90;;;;;;5071101;28;20033;-76
2022/03/16 01:05:46;;;;;;;28.65;19.77;;;6.70;99.90;;;;;;5072296;28;20066;-74
2022/03/16 01:08:12;;;;;;;33.33;21.08;;;6.70;99.90;;;;;;5071909;28;20053;-76
2022/03/16 01:10:41;;;;;;;29.15;20.00;;;6.60;99.90;;;;;;5071372;28;20488;-76
2022/03/16 01:13:07;;;;;;;30.33;20.40;;;6.70;99.90;;;;;;5071729;28;20039;-75
2022/03/16 01:15:33;;;;;;;33.97;21.70;;;6.60;99.90;;;;;;5072031;28;20100;-76
2022/03/16 01:17:58;;;;;;;33.85;21.10;;;6.60;99.90;;;;;;5071274;28;20384;-75
2022/03/16 01:20:24;;;;;;;36.75;21.17;;;6.60;99.90;;;;;;5071975;28;20043;-76
2022/03/16 01:22:50;;;;;;;33.85;22.00;;;6.60;99.90;;;;;;5071842;28;20387;-76
2022/03/16 01:25:16;;;;;;;33.78;21.95;;;6.50;99.90;;;;;;5071100;28;20028;-76
2022/03/16 01:27:41;;;;;;;40.35;23.40;;;6.50;99.90;;;;;;5072100;28;20020;-76
2022/03/16 01:30:07;;;;;;;32.78;22.88;;;6.50;99.90;;;;;;5071695;28;20032;-76
2022/03/16 01:32:34;;;;;;;42.67;25.40;;;6.60;99.90;;;;;;5071044;28;20479;-76
2022/03/16 01:34:59;;;;;;;37.63;23.92;;;6.50;99.90;;;;;;5071506;28;20070;-76
2022/03/16 01:37:25;;;;;;;40.78;24.50;;;6.50;99.90;;;;;;5071438;28;20032;-76
2022/03/16 01:39:50;;;;;;;42.47;26.08;;;6.50;99.90;;;;;;5071296;28;20052;-76
2022/03/16 01:42:16;;;;;;;41.50;25.13;;;6.50;99.90;;;;;;5071555;28;20048;-76
2022/03/16 01:44:45;;;;;;;41.65;25.80;;;6.50;99.90;;;;;;5071917;28;20021;-76
2022/03/16 01:47:12;;;;;;;39.70;24.17;;;6.50;99.90;;;;;;5070681;28;20044;-75
2022/03/16 01:49:38;;;;;;;42.22;25.77;;;6.50;99.90;;;;;;5071849;28;20024;-76
2022/03/16 01:52:07;;;;;;;41.92;24.75;;;6.40;99.90;;;;;;5070856;28;20043;-76
2022/03/16 01:54:33;;;;;;;46.75;26.95;;;6.40;99.90;;;;;;5071572;28;20067;-76
2022/03/16 01:57:00;;;;;;;50.35;28.33;;;6.40;99.90;;;;;;5071640;28;20535;-75
2022/03/16 01:59:25;;;;;;;46.92;26.95;;;6.40;99.90;;;;;;5070484;28;20025;-76
2022/03/16 02:01:51;;;;;;;41.97;27.13;;;6.50;99.90;;;;;;5071648;28;20392;-76
2022/03/16 02:04:16;;;;;;;45.75;27.02;;;6.40;99.90;;;;;;5071916;28;20468;-76
2022/03/16 02:06:42;;;;;;;46.35;27.05;;;6.40;99.90;;;;;;5074385;28;20056;-76
2022/03/16 02:09:08;;;;;;;45.60;28.08;;;6.40;99.90;;;;;;5075014;28;20024;-76
2022/03/16 02:11:33;;;;;;;44.75;26.88;;;6.40;99.90;;;;;;5075118;28;20039;-76
2022/03/16 02:13:59;;;;;;;48.28;27.48;;;6.30;99.90;;;;;;5074368;28;20023;-76
2022/03/16 02:16:25;;;;;;;43.97;27.17;;;6.30;99.90;;;;;;5074694;28;20028;-76
2022/03/16 02:18:52;;;;;;;44.35;27.05;;;6.30;99.90;;;;;;5075298;28;20032;-75
2022/03/16 02:21:19;;;;;;;43.85;27.45;;;6.30;99.90;;;;;;5074183;28;20037;-76
2022/03/16 02:23:44;;;;;;;43.92;27.02;;;6.40;99.90;;;;;;5075035;28;20029;-76
2022/03/16 02:26:14;;;;;;;42.72;25.50;;;6.30;99.90;;;;;;5074578;28;20024;-76
2022/03/16 02:28:40;;;;;;;41.17;25.85;;;6.30;99.90;;;;;;5074280;28;20035;-75
2022/03/16 02:31:06;;;;;;;43.85;26.15;;;6.30;99.90;;;;;;5074986;28;20033;-76
2022/03/16 02:33:32;;;;;;;41.10;26.63;;;6.30;99.90;;;;;;5074738;28;20032;-75
2022/03/16 02:35:57;;;;;;;39.83;25.98;;;6.30;99.90;;;;;;5074184;28;20017;-75
2022/03/16 02:38:23;;;;;;;45.85;27.15;;;6.30;99.90;;;;;;5074457;28;20032;-75
2022/03/16 02:40:48;;;;;;;43.58;26.88;;;6.20;99.90;;;;;;5074716;28;20590;-75
2022/03/16 02:43:14;;;;;;;45.83;25.13;;;6.30;99.90;;;;;;5073996;28;20033;-75
2022/03/16 02:45:40;;;;;;;41.72;26.42;;;6.20;99.90;;;;;;5074913;28;20031;-75
2022/03/16 02:48:05;;;;;;;41.95;26.73;;;6.20;99.90;;;;;;5074744;28;20110;-75
2022/03/16 02:50:31;;;;;;;45.85;25.88;;;6.10;99.90;;;;;;5073701;28;20079;-75
2022/03/16 02:52:57;;;;;;;43.25;27.45;;;6.10;99.90;;;;;;5074659;28;20036;-75
2022/03/16 02:55:23;;;;;;;39.00;25.52;;;6.10;99.90;;;;;;5073302;28;20487;-75
2022/03/16 02:57:48;;;;;;;37.17;25.27;;;6.10;99.90;;;;;;5074301;28;20086;-76
2022/03/16 03:00:14;;;;;;;39.42;25.17;;;6.00;99.90;;;;;;5073862;28;20052;-75
2022/03/16 03:02:41;;;;;;;39.85;24.17;;;6.00;99.90;;;;;;5073714;28;20021;-75
2022/03/16 03:05:07;;;;;;;37.25;23.20;;;6.00;99.90;;;;;;5074047;28;20028;-75
2022/03/16 03:07:33;;;;;;;40.00;24.25;;;5.90;99.90;;;;;;5073930;28;20051;-76
2022/03/16 03:09:58;;;;;;;38.33;24.52;;;5.90;99.90;;;;;;5073334;28;20391;-75
2022/03/16 03:12:24;;;;;;;41.85;25.02;;;5.90;99.90;;;;;;5073540;28;20128;-74
2022/03/16 03:14:50;;;;;;;42.28;26.02;;;5.90;99.90;;;;;;5074203;28;20107;-74
2022/03/16 03:17:16;;;;;;;41.53;24.90;;;5.90;99.90;;;;;;5072933;28;20031;-74
2022/03/16 03:19:43;;;;;;;41.60;25.35;;;5.90;99.90;;;;;;5073748;28;20031;-75
2022/03/16 03:22:09;;;;;;;40.72;25.55;;;5.90;99.90;;;;;;5073662;28;20032;-74
2022/03/16 03:24:35;;;;;;;46.25;27.30;;;5.90;99.90;;;;;;5073064;28;20488;-74
2022/03/16 03:27:01;;;;;;;41.88;26.15;;;5.80;99.90;;;;;;5073748;28;20039;-74
2022/03/16 03:29:26;;;;;;;38.33;24.10;;;5.90;99.90;;;;;;5073766;28;20059;-74
2022/03/16 03:31:52;;;;;;;64.95;27.10;;;6.00;99.90;;;;;;5072767;28;20059;-75
2022/03/16 03:34:17;;;;;;;38.83;24.67;;;5.90;99.90;;;;;;5073498;28;20052;-74
2022/03/16 03:36:43;;;;;;;38.67;23.73;;;5.90;99.90;;;;;;5073726;28;20101;-74
2022/03/16 03:39:10;;;;;;;39.88;24.90;;;5.90;99.90;;;;;;5072373;28;20100;-76
2022/03/16 03:41:35;;;;;;;39.35;24.50;;;5.90;99.90;;;;;;5073456;28;20032;-76
2022/03/16 03:44:01;;;;;;;40.55;23.98;;;5.90;99.90;;;;;;5073365;28;20028;-76
2022/03/16 03:46:27;;;;;;;35.58;23.48;;;5.90;99.90;;;;;;5072477;28;20075;-76
2022/03/16 03:48:53;;;;;;;38.45;23.95;;;5.90;99.90;;;;;;5073238;28;20016;-76
2022/03/16 03:51:19;;;;;;;41.00;23.17;;;5.90;99.90;;;;;;5073011;28;20039;-76
2022/03/16 03:53:44;;;;;;;34.75;22.45;;;5.80;99.90;;;;;;5072559;28;20021;-76
2022/03/16 03:56:10;;;;;;;36.97;23.88;;;5.80;99.90;;;;;;5072961;28;20028;-76
2022/03/16 03:58:37;;;;;;;41.35;23.98;;;5.80;99.90;;;;;;5072742;28;20105;-76
2022/03/16 04:01:03;;;;;;;42.30;23.50;;;5.80;99.90;;;;;;5073355;28;20036;-75
2022/03/16 04:03:29;;;;;;;40.13;25.05;;;5.80;99.90;;;;;;5073002;28;20024;-76
2022/03/16 04:05:55;;;;;;;40.20;24.55;;;5.70;99.90;;;;;;5072482;28;20662;-76
2022/03/16 04:08:20;;;;;;;45.28;25.60;;;5.80;99.90;;;;;;5072756;28;20090;-76
2022/03/16 04:10:46;;;;;;;44.03;26.50;;;5.70;99.90;;;;;;5072736;28;20042;-75
2022/03/16 04:13:11;;;;;;;40.17;25.40;;;5.70;99.90;;;;;;5071668;28;20536;-76
2022/03/16 04:15:38;;;;;;;37.25;24.73;;;5.70;99.90;;;;;;5072575;28;20548;-76
2022/03/16 04:18:03;;;;;;;46.80;26.25;;;5.70;99.90;;;;;;5072648;28;20103;-76
2022/03/16 04:20:29;;;;;;;39.85;24.33;;;5.70;99.90;;;;;;5071666;28;20035;-76
2022/03/16 04:22:54;;;;;;;41.13;24.67;;;5.60;99.90;;;;;;5072809;28;20021;-75
2022/03/16 04:25:23;;;;;;;39.67;25.20;;;5.60;99.90;;;;;;5072316;28;20582;-75
2022/03/16 04:27:48;;;;;;;42.38;25.58;;;5.60;99.90;;;;;;5071566;28;20055;-76
2022/03/16 04:30:14;;;;;;;42.22;24.13;;;5.60;99.90;;;;;;5072492;28;20415;-75
2022/03/16 04:32:39;;;;;;;36.80;23.52;;;5.60;99.90;;;;;;5072516;28;20060;-76
2022/03/16 04:35:05;;;;;;;43.10;25.05;;;5.50;99.90;;;;;;5072061;28;20367;-76
2022/03/16 04:37:32;;;;;;;41.55;24.73;;;5.50;99.90;;;;;;5072369;28;20029;-75
2022/03/16 04:39:58;;;;;;;39.00;24.17;;;5.50;99.90;;;;;;5072669;28;20526;-76
2022/03/16 04:42:24;;;;;;;36.10;24.30;;;5.50;99.90;;;;;;5071304;28;20037;-76
2022/03/16 04:44:49;;;;;;;41.88;25.02;;;5.50;99.90;;;;;;5072438;28;20021;-76
2022/03/16 04:47:15;;;;;;;40.00;24.40;;;5.40;99.90;;;;;;5072229;28;20051;-75
2022/03/16 04:49:40;;;;;;;37.75;24.05;;;5.40;99.90;;;;;;5071725;28;20483;-76
2022/03/16 04:52:06;;;;;;;40.35;23.98;;;5.30;99.90;;;;;;5072227;28;20384;-76
2022/03/16 04:54:32;;;;;;;38.55;25.95;;;5.30;99.90;;;;;;5072203;28;20039;-76
2022/03/16 04:56:57;;;;;;;35.88;23.70;;;5.30;99.90;;;;;;5071485;28;20486;-75
2022/03/16 04:59:23;;;;;;;38.85;24.98;;;5.30;99.90;;;;;;5072252;28;20430;-75
2022/03/16 05:01:48;;;;;;;40.45;25.75;;;5.20;99.90;;;;;;5072446;28;20472;-76
2022/03/16 05:04:14;;;;;;;43.67;26.67;;;5.20;99.90;;;;;;5071370;28;20353;-76
2022/03/16 05:06:40;;;;;;;42.38;24.92;;;5.20;99.90;;;;;;5072224;28;20049;-76
2022/03/16 05:09:05;;;;;;;46.03;26.20;;;5.10;99.90;;;;;;5071374;28;20032;-76
2022/03/16 05:11:31;;;;;;;38.38;25.33;;;5.10;99.90;;;;;;5071729;28;20040;-76
2022/03/16 05:13:57;;;;;;;43.05;27.02;;;5.20;99.90;;;;;;5072451;28;20107;-76
2022/03/16 05:16:25;;;;;;;44.47;26.42;;;5.10;99.90;;;;;;5071408;28;20444;-75
2022/03/16 05:18:51;;;;;;;41.78;26.02;;;5.10;99.90;;;;;;5072165;28;20021;-76
2022/03/16 05:21:16;;;;;;;38.92;25.40;;;5.10;99.90;;;;;;5071753;28;20023;-76
2022/03/16 05:23:42;;;;;;;43.30;25.88;;;5.10;99.90;;;;;;5071122;28;20054;-76
2022/03/16 05:26:08;;;;;;;39.35;25.20;;;5.10;99.90;;;;;;5071668;28;20369;-75
2022/03/16 05:28:35;;;;;;;42.83;25.55;;;5.10;99.90;;;;;;5072055;28;20037;-75
2022/03/16 05:31:00;;;;;;;39.88;26.50;;;5.10;99.90;;;;;;5071226;28;20054;-76
2022/03/16 05:33:26;;;;;;;43.90;25.88;;;5.20;99.90;;;;;;5071543;28;20431;-75
2022/03/16 05:35:51;;;;;;;41.90;24.55;;;5.20;99.90;;;;;;5071756;28;20032;-76
2022/03/16 05:38:17;;;;;;;38.55;24.17;;;5.20;99.90;;;;;;5070798;28;20506;-76
2022/03/16 05:40:43;;;;;;;41.97;26.58;;;5.10;99.90;;;;;;5074573;28;20460;-75
2022/03/16 05:43:10;;;;;;;42.15;24.83;;;5.00;99.90;;;;;;5075385;28;20103;-75
2022/03/16 05:45:36;;;;;;;43.53;25.70;;;5.00;99.90;;;;;;5074935;28;20029;-75
2022/03/16 05:48:02;;;;;;;40.20;26.65;;;4.90;99.90;;;;;;5075639;28;20017;-75
2022/03/16 05:50:28;;;;;;;43.97;26.88;;;4.90;99.90;;;;;;5075087;28;20043;-76
2022/03/16 05:52:58;;;;;;;44.20;26.30;;;4.90;99.90;;;;;;5074665;28;20056;-76
2022/03/16 05:55:24;;;;;;;40.67;24.93;;;5.00;99.90;;;;;;5075170;28;20029;-76
2022/03/16 05:57:50;;;;;;;37.38;25.40;;;4.90;99.90;;;;;;5075159;28;20025;-76
2022/03/16 06:00:17;;;;;;;34.85;23.50;;;4.90;99.90;;;;;;5074227;28;20033;-76
2022/03/16 06:02:47;;;;;;;37.38;24.02;;;4.90;99.90;;;;;;5075158;28;20025;-76
2022/03/16 06:05:13;;;;;;;37.07;24.60;;;4.90;99.90;;;;;;5074069;28;20032;-76
2022/03/16 06:07:39;;;;;;;37.28;24.55;;;4.90;99.90;;;;;;5074720;28;20446;-75
2022/03/16 06:10:07;;;;;;;39.42;24.52;;;4.90;99.90;;;;;;5075205;28;20070;-75
2022/03/16 06:12:33;;;;;;;38.83;24.80;;;5.00;99.90;;;;;;5074120;28;20044;-75
2022/03/16 06:14:58;;;;;;;38.40;25.05;;;5.00;99.90;;;;;;5074863;28;20032;-75
2022/03/16 06:17:24;;;;;;;40.88;24.15;;;5.00;99.90;;;;;;5074403;28;20043;-75
2022/03/16 06:19:49;;;;;;;36.88;24.30;;;4.90;99.90;;;;;;5073922;28;20024;-74
2022/03/16 06:22:15;;;;;;;36.78;24.05;;;5.10;99.90;;;;;;5074271;28;20016;-75
2022/03/16 06:24:40;;;;;;;40.55;26.40;;;5.10;99.90;;;;;;5074827;28;20017;-75
2022/03/16 06:27:06;;;;;;;37.08;24.73;;;5.10;99.90;;;;;;5073994;28;20101;-75
2022/03/16 06:29:32;;;;;;;41.95;26.23;;;5.20;99.90;;;;;;5074649;28;20031;-74
2022/03/16 06:31:58;;;;;;;39.72;24.67;;;5.20;99.90;;;;;;5074365;28;20443;-74
2022/03/16 06:34:23;;;;;;;37.42;24.13;;;5.30;99.90;;;;;;5073591;28;20016;-74
2022/03/16 06:36:49;;;;;;;43.67;25.75;;;5.40;99.90;;;;;;5074457;28;20388;-74
2022/03/16 06:39:14;;;;;;;39.40;24.27;;;5.40;99.90;;;;;;5076068;28;20024;-74
2022/03/16 06:41:41;;;;;;;35.20;23.23;;;5.40;99.90;;;;;;5076129;28;20032;-74
2022/03/16 06:44:07;;;;;;;39.28;25.13;;;5.50;99.90;;;;;;5074775;28;20028;-75
2022/03/16 06:46:32;;;;;;;35.58;22.75;;;5.50;99.90;;;;;;5072895;28;20016;-74
2022/03/16 06:48:58;;;;;;;35.97;22.50;;;5.50;99.90;;;;;;5071710;28;20027;-74
2022/03/16 06:51:23;;;;;;;34.33;21.38;;;5.50;99.90;;;;;;5072146;28;20392;-74
2022/03/16 06:53:49;;;;;;;34.33;21.50;;;5.60;99.90;;;;;;5072767;28;20063;-73
2022/03/16 06:56:14;;;;;;;33.67;21.15;;;5.60;99.90;;;;;;5071740;28;20078;-74
2022/03/16 06:58:40;;;;;;;31.50;19.65;;;5.70;99.90;;;;;;5072703;28;20478;-74
2022/03/16 07:01:05;;;;;;;30.50;21.23;;;5.70;99.90;;;;;;5072637;28;20040;-73
2022/03/16 07:03:31;;;;;;;36.50;20.75;;;5.80;99.90;;;;;;5072348;28;20115;-74
2022/03/16 07:05:57;;;;;;;33.65;20.00;;;6.00;99.90;;;;;;5073637;28;20063;-74
2022/03/16 07:08:22;;;;;;;29.08;18.65;;;6.00;99.90;;;;;;5073444;28;20466;-74
2022/03/16 07:10:48;;;;;;;30.35;18.23;;;6.10;99.90;;;;;;5072875;28;20024;-74
2022/03/16 07:13:14;;;;;;;28.73;19.45;;;6.20;99.90;;;;;;5073623;28;20028;-74
2022/03/16 07:15:41;;;;;;;30.08;18.58;;;6.20;99.90;;;;;;5073412;28;20365;-74
2022/03/16 07:18:07;;;;;;;23.50;16.42;;;6.20;99.90;;;;;;5073865;28;20028;-76
2022/03/16 07:20:39;;;;;;;22.10;15.45;;;6.30;99.90;;;;;;5073380;28;20062;-75
2022/03/16 07:23:10;;;;;;;30.92;17.00;;;6.70;99.90;;;;;;5072984;28;20024;-76
2022/03/16 07:25:40;;;;;;;;;;;6.50;99.90;;;;;;5073867;28;20028;-75
2022/03/16 07:28:06;;;;;;;25.00;16.58;;;6.60;99.90;;;;;;5073062;28;19962;-75
2022/03/16 07:30:32;;;;;;;23.75;15.90;;;6.60;99.90;;;;;;5072486;28;20116;-75
2022/03/16 07:32:58;;;;;;;27.30;15.68;;;6.70;99.90;;;;;;5072873;28;20111;-76
2022/03/16 07:35:26;;;;;;;28.73;16.63;;;6.80;99.90;;;;;;5072712;28;20033;-75
2022/03/16 07:37:53;;;;;;;22.00;14.68;;;6.90;99.90;;;;;;5072272;28;20423;-74
2022/03/16 07:40:19;;;;;;;23.70;15.00;;;7.00;99.90;;;;;;5072771;28;20090;-75
2022/03/16 07:42:46;;;;;;;20.08;13.95;;;7.10;99.90;;;;;;5073019;28;20021;-75
2022/03/16 07:45:14;;;;;;;21.02;14.48;;;7.20;99.90;;;;;;5072081;28;20089;-75
2022/03/16 07:47:40;;;;;;;17.70;12.75;;;7.20;99.90;;;;;;5072752;28;20414;-74
2022/03/16 07:50:07;;;;;;;19.67;12.07;;;7.20;99.90;;;;;;5072800;28;20028;-75
2022/03/16 07:52:33;;;;;;;27.17;13.15;;;7.30;99.90;;;;;;5071955;28;20041;-76
2022/03/16 07:54:58;;;;;;;20.38;13.90;;;7.30;99.90;;;;;;5072655;28;20453;-76
2022/03/16 07:57:25;;;;;;;17.92;12.80;;;7.40;99.90;;;;;;5072581;28;20020;-76
2022/03/16 07:59:51;;;;;;;16.73;12.57;;;7.40;99.90;;;;;;5072011;28;20137;-76
2022/03/16 08:02:17;;;;;;;20.88;12.07;;;7.50;99.90;;;;;;5071353;28;20484;-76
2022/03/16 08:04:42;;;;;;;16.42;11.98;;;7.50;99.90;;;;;;5072536;28;20116;-76
2022/03/16 08:07:09;;;;;;;14.48;11.48;;;7.60;99.90;;;;;;5071982;28;20127;-76
2022/03/16 08:09:35;;;;;;;18.08;10.70;;;7.70;99.90;;;;;;5073799;28;20021;-83
2022/03/16 08:12:01;;;;;;;13.98;11.52;;;7.70;99.90;;;;;;5073485;28;20079;-82
2022/03/16 08:14:27;;;;;;;14.98;10.95;;;7.90;99.90;;;;;;5074256;28;20020;-83
2022/03/16 08:16:53;;;;;;;17.50;10.85;;;8.00;99.90;;;;;;5076346;28;20016;-82
2022/03/16 08:19:19;;;;;;;14.30;9.70;;;8.10;99.90;;;;;;5072529;28;20032;-82
2022/03/16 08:21:45;;;;;;;17.70;10.18;;;8.20;99.90;;;;;;5073831;28;20060;-83
2022/03/16 08:24:11;;;;;;;13.73;10.35;;;8.40;99.90;;;;;;5073338;28;20036;-82
2022/03/16 08:26:36;;;;;;;13.73;10.32;;;8.40;99.90;;;;;;5072736;28;20029;-81
2022/03/16 08:29:02;;;;;;;20.88;11.57;;;8.50;99.90;;;;;;5073509;28;20396;-81
2022/03/16 08:31:27;;;;;;;16.05;10.48;;;8.50;99.90;;;;;;5071885;28;20507;-82
2022/03/16 08:33:54;;;;;;;14.95;10.13;;;8.60;99.90;;;;;;5071890;28;20021;-82
2022/03/16 08:36:20;;;;;;;12.50;9.27;;;8.70;99.90;;;;;;5074182;28;20037;-81
2022/03/16 08:38:45;;;;;;;12.30;9.70;;;8.80;99.90;;;;;;5093584;28;20028;-81
2022/03/16 08:41:11;;;;;;;13.93;10.15;;;8.90;99.90;;;;;;5092597;28;20034;-81
2022/03/16 08:43:37;;;;;;;10.45;9.07;;;9.00;99.90;;;;;;5078980;28;20108;-82
2022/03/16 08:46:04;;;;;;;18.13;9.93;;;9.00;99.90;;;;;;5072520;28;20028;-81
2022/03/16 08:48:30;;;;;;;19.08;10.43;;;9.10;99.90;;;;;;5072519;28;20028;-82
2022/03/16 08:50:55;;;;;;;14.40;10.02;;;9.10;99.90;;;;;;5073061;28;20020;-80
2022/03/16 08:53:21;;;;;;;17.38;9.65;;;9.20;99.90;;;;;;5074597;28;20032;-81
2022/03/16 08:55:47;;;;;;;14.40;9.60;;;9.20;99.90;;;;;;5085208;28;20024;-80
2022/03/16 08:58:14;;;;;;;15.73;9.75;;;9.30;99.90;;;;;;5079585;28;20045;-80
2022/03/16 09:00:43;;;;;;;15.82;9.70;;;9.30;99.90;;;;;;5074999;28;20031;-81
2022/03/16 09:03:09;;;;;;;14.02;9.48;;;9.40;99.90;;;;;;5071720;28;20029;-79
2022/03/16 09:05:34;;;;;;;12.63;9.40;;;9.40;99.90;;;;;;5072804;28;20012;-79
2022/03/16 09:08:00;;;;;;;14.52;9.85;;;9.50;99.90;;;;;;5072097;28;20052;-79
2022/03/16 09:10:26;;;;;;;15.35;10.57;;;9.50;99.90;;;;;;5071786;28;20337;-79
2022/03/16 09:12:52;;;;;;;15.82;10.00;;;9.50;99.90;;;;;;5072792;28;20051;-80
2022/03/16 09:15:18;;;;;;;14.75;9.40;;;9.60;99.90;;;;;;5078018;28;20108;-77
2022/03/16 09:17:43;;;;;;;16.80;10.02;;;9.70;99.90;;;;;;5078602;28;20119;-78
2022/03/16 09:20:09;;;;;;;13.85;9.80;;;9.70;99.90;;;;;;5078532;28;20029;-78
2022/03/16 09:22:35;;;;;;;14.25;10.32;;;9.80;99.90;;;;;;5078131;28;20134;-76
2022/03/16 09:25:01;;;;;;;11.85;9.75;;;9.80;99.90;;;;;;5078466;28;20024;-75
2022/03/16 09:27:27;;;;;;;12.25;10.45;;;9.90;99.90;;;;;;5078307;28;20506;-76
2022/03/16 09:29:55;;;;;;;11.18;10.02;;;9.90;99.90;;;;;;5078263;28;20036;-79
2022/03/16 09:32:22;;;;;;;10.50;9.23;;;10.00;99.90;;;;;;5078471;28;20408;-76
2022/03/16 09:34:48;;;;;;;11.70;10.00;;;10.10;99.90;;;;;;5078528;28;20433;-78
2022/03/16 09:37:14;;;;;;;12.98;10.35;;;10.20;99.90;;;;;;5077537;28;20056;-76
2022/03/16 09:39:41;;;;;;;12.68;10.30;;;10.20;99.90;;;;;;5078281;28;20027;-76
2022/03/16 09:42:08;;;;;;;23.95;12.38;;;10.40;99.90;;;;;;5078188;28;20361;-77
2022/03/16 09:44:34;;;;;;;20.75;10.73;;;10.30;99.90;;;;;;5078236;28;20111;-78
2022/03/16 09:47:00;;;;;;;17.73;10.95;;;10.40;99.90;;;;;;5078728;28;20048;-77
2022/03/16 09:49:29;;;;;;;10.27;9.27;;;10.50;99.90;;;;;;5077894;28;20591;-77
2022/03/16 09:51:55;;;;;;;16.83;10.77;;;10.50;99.90;;;;;;5077741;28;20040;-78
2022/03/16 09:54:22;;;;;;;16.98;10.43;;;10.60;99.90;;;;;;5078421;28;20021;-78
2022/03/16 09:56:48;;;;;;;11.98;10.20;;;10.60;99.90;;;;;;5078421;28;20025;-78
2022/03/16 09:59:17;;;;;;;11.10;9.98;;;10.60;99.90;;;;;;5059753;28;20039;-77
2022/03/16 10:01:43;;;;;;;12.25;10.75;;;10.70;99.90;;;;;;5078794;28;20024;-78
2022/03/16 10:04:10;;;;;;;12.13;10.85;;;10.80;99.90;;;;;;5078645;28;20428;-78
2022/03/16 10:06:40;;;;;;;13.23;10.05;;;10.80;99.90;;;;;;5077654;28;20072;-77
2022/03/16 10:15:18;;;;;;;14.13;10.20;;;11.00;99.90;;;;;;5078414;28;20133;-82
2022/03/16 10:17:48;;;;;;;11.98;10.65;;;11.20;99.90;;;;;;5078162;28;20021;-79
2022/03/16 10:20:28;;;;;;;13.63;11.23;;;11.20;99.90;;;;;;5080090;28;20040;-79
2022/03/16 10:22:55;;;;;;;12.50;10.20;;;11.40;99.90;;;;;;5078511;28;20051;-81
2022/03/16 10:25:21;;;;;;;15.60;11.57;;;11.40;99.90;;;;;;5075793;28;20028;-80
2022/03/16 10:27:46;;;;;;;16.42;10.30;;;11.50;99.90;;;;;;5074213;28;20058;-80
2022/03/16 10:30:15;;;;;;;11.95;10.68;;;11.60;99.90;;;;;;5074846;28;20032;-80
2022/03/16 10:32:54;;;;;;;15.15;10.65;;;11.70;99.90;;;;;;5074291;28;20028;-80
2022/03/16 10:35:20;;;;;;;21.33;11.77;;;11.80;99.90;;;;;;5088572;28;20029;-80
2022/03/16 10:37:47;;;;;;;13.10;10.85;;;11.90;99.90;;;;;;5077558;28;20023;-81
2022/03/16 10:40:20;;;;;;;16.23;10.77;;;12.00;99.90;;;;;;5074164;28;20103;-80
2022/03/16 10:48:23;;;;;;;12.68;11.27;;;12.50;99.90;;;;;;5095156;28;20035;-80
2022/03/16 10:50:55;;;;;;;12.93;11.50;;;12.60;99.90;;;;;;5089715;28;20024;-80
2022/03/16 10:53:28;;;;;;;14.85;11.68;;;12.70;99.90;;;;;;5075226;28;20104;-80
2022/03/16 10:55:55;;;;;;;16.10;11.85;;;12.80;99.90;;;;;;5089289;28;20027;-80
2022/03/16 10:58:23;;;;;;;13.82;10.35;;;12.90;99.90;;;;;;5077570;28;20453;-80
2022/03/16 11:00:52;;;;;;;11.68;10.50;;;12.90;99.90;;;;;;5076574;28;20021;-80
2022/03/16 11:03:22;;;;;;;13.43;11.40;;;13.00;99.90;;;;;;5074039;28;20044;-80
2022/03/16 11:05:48;;;;;;;11.93;10.70;;;13.00;99.90;;;;;;5074385;28;20039;-79
2022/03/16 11:08:15;;;;;;;12.48;10.40;;;13.10;99.90;;;;;;5073277;28;20025;-80
2022/03/16 11:10:42;;;;;;;11.45;10.32;;;13.10;99.90;;;;;;5073834;28;20021;-79
2022/03/16 11:15:55;;;;;;;13.45;11.63;;;12.90;99.90;;;;;;5091484;28;20182;-80
2022/03/16 11:18:23;;;;;;;13.57;10.93;;;12.90;99.90;;;;;;5083324;28;20029;-80
2022/03/16 11:20:50;;;;;;;12.57;10.35;;;12.90;99.90;;;;;;5073920;28;20024;-81
2022/03/16 11:26:26;;;;;;;12.10;10.52;;;13.00;99.90;;;;;;5093397;28;20015;-81
2022/03/16 11:29:38;;;;;;;17.45;11.20;;;13.20;99.90;;;;;;5089586;28;20032;-81
2022/03/16 11:32:10;;;;;;;11.95;10.60;;;13.30;99.90;;;;;;5076450;28;20036;-80
2022/03/16 11:34:36;;;;;;;12.50;11.30;;;13.40;99.90;;;;;;5073577;28;20016;-80
2022/03/16 11:37:11;;;;;;;13.45;11.25;;;13.30;99.90;;;;;;5071948;28;20046;-80
2022/03/16 11:40:05;;;;;;;12.38;11.07;;;13.40;99.90;;;;;;5073142;28;20035;-80
2022/03/16 11:42:32;;;;;;;13.43;11.40;;;13.50;99.90;;;;;;5073158;28;20051;-79
2022/03/16 11:45:41;;;;;;;13.00;11.60;;;13.60;99.90;;;;;;5073365;28;20025;-77
2022/03/16 11:48:31;;;;;;;17.30;11.52;;;13.70;99.90;;;;;;5075084;28;20431;-78
2022/03/16 11:54:05;;;;;;;11.90;10.43;;;13.80;99.90;;;;;;5072320;28;20039;-80
2022/03/16 11:56:39;;;;;;;12.45;11.15;;;13.90;99.90;;;;;;5073218;28;20099;-80
2022/03/16 11:59:22;;;;;;;14.35;11.80;;;14.00;99.90;;;;;;5073097;28;20056;-80
2022/03/16 12:01:52;;;;;;;12.95;11.18;;;14.00;99.90;;;;;;5074584;28;20021;-81
2022/03/16 12:04:43;;;;;;;14.47;11.67;;;14.20;99.90;;;;;;5072678;28;20028;-82
2022/03/16 12:07:12;;;;;;;;;;;14.10;99.90;;;;;;5072740;28;20508;-80
2022/03/16 12:09:52;;;;;;;16.45;12.07;;;14.10;99.90;;;;;;5092761;28;19908;-80
2022/03/16 12:12:57;;;;;;;13.75;10.77;;;14.20;99.90;;;;;;5090859;28;20028;-80
2022/03/16 12:15:32;;;;;;;16.17;12.38;;;14.20;99.90;;;;;;5071999;28;20376;-81
2022/03/16 12:17:58;;;;;;;15.57;13.13;;;14.20;99.90;;;;;;5069370;28;20044;-81
2022/03/16 12:20:43;;;;;;;13.40;12.00;;;14.10;99.90;;;;;;5072671;28;20024;-80
2022/03/16 12:23:14;;;;;;;13.73;11.88;;;14.10;99.90;;;;;;5106993;28;20497;-80
2022/03/16 12:25:46;;;;;;;15.38;11.70;;;14.00;99.90;;;;;;5111469;28;20061;-81
2022/03/16 12:31:18;;;;;;;19.45;12.20;;;14.10;99.90;;;;;;5112845;28;20038;-81
2022/03/16 12:33:47;;;;;;;15.68;12.32;;;14.00;99.90;;;;;;5117139;28;20043;-80
2022/03/16 12:36:18;;;;;;;15.90;12.27;;;14.00;99.90;;;;;;5122441;28;20114;-79
2022/03/16 12:38:47;;;;;;;17.88;12.18;;;14.00;99.90;;;;;;5114286;28;20027;-81
2022/03/16 12:44:03;;;;;;;15.88;11.90;;;14.00;99.90;;;;;;5113681;28;20151;-81
2022/03/16 12:46:52;;;;;;;16.83;13.02;;;14.00;99.90;;;;;;5112428;28;20444;-80
2022/03/16 12:49:22;;;;;;;19.02;12.40;;;14.10;99.90;;;;;;5112537;28;20079;-80
2022/03/16 12:51:49;;;;;;;16.27;12.73;;;14.10;99.90;;;;;;5113118;28;20035;-80
2022/03/16 12:54:20;;;;;;;14.45;11.82;;;14.10;99.90;;;;;;5112269;28;20048;-81
2022/03/16 12:56:51;;;;;;;19.60;12.80;;;14.10;99.90;;;;;;5113171;28;20043;-80
2022/03/16 12:59:25;;;;;;;18.45;12.43;;;14.10;99.90;;;;;;5112848;28;20061;-80
2022/03/16 13:01:52;;;;;;;17.85;12.48;;;14.20;99.90;;;;;;5112662;28;20028;-81
2022/03/16 13:04:19;;;;;;;20.42;12.93;;;14.20;99.90;;;;;;5112698;28;20118;-78